Time;durP1;ratioP1;P1;durP2;ratioP2;P2;SDS_P1;SDS_P2;PMS_P1;PMS_P2;Temp;Humidity;BMP_temperature;BMP_pressure;BME280_temperature;BME280_humidity;BME280_pressure;Samples;Min_cycle;Max_cycle;Signal;HPM_P1;HPM_P2
2023/09/13 00:01:11;;;;;;;9.68;7.43;;;20.00;99.90;;;;;;5057310;28;20049;-64
2023/09/13 00:03:37;;;;;;;11.55;7.18;;;20.00;99.90;;;;;;5057160;28;20036;-64
2023/09/13 00:06:03;;;;;;;7.70;6.57;;;20.00;99.90;;;;;;5057358;28;20127;-64
2023/09/13 00:08:28;;;;;;;11.45;7.78;;;20.10;99.90;;;;;;5057376;28;20052;-63
2023/09/13 00:11:02;;;;;;;9.75;6.82;;;20.00;99.90;;;;;;5058319;28;20044;-63
2023/09/13 00:13:27;;;;;;;13.80;7.47;;;20.00;99.90;;;;;;5058606;28;20070;-64
2023/09/13 00:15:53;;;;;;;12.52;7.20;;;20.00;99.90;;;;;;5057415;28;20033;-63
2023/09/13 00:18:19;;;;;;;12.38;7.05;;;19.90;99.90;;;;;;5058907;28;20059;-63
2023/09/13 00:20:45;;;;;;;11.10;7.18;;;20.00;99.90;;;;;;5056941;28;20445;-63
2023/09/13 00:23:10;;;;;;;12.18;7.03;;;20.00;99.90;;;;;;5058135;28;20060;-64
2023/09/13 00:25:36;;;;;;;13.02;7.32;;;19.90;99.90;;;;;;5055407;28;20059;-63
2023/09/13 00:28:02;;;;;;;9.45;6.63;;;19.90;99.90;;;;;;5058750;28;20043;-63
2023/09/13 00:30:28;;;;;;;12.20;7.15;;;19.90;99.90;;;;;;5055927;28;20484;-64
2023/09/13 00:32:54;;;;;;;10.80;7.15;;;19.80;99.90;;;;;;5057626;28;20036;-63
2023/09/13 00:35:20;;;;;;;10.98;7.03;;;19.90;99.90;;;;;;5057694;28;20601;-64
2023/09/13 00:37:45;;;;;;;11.70;7.30;;;19.80;99.90;;;;;;5055821;28;20091;-63
2023/09/13 00:40:11;;;;;;;11.38;7.28;;;19.80;99.90;;;;;;5056583;28;20047;-63
2023/09/13 00:42:37;;;;;;;13.00;6.90;;;19.80;99.90;;;;;;5057969;28;20059;-62
2023/09/13 00:45:03;;;;;;;8.73;6.60;;;19.80;99.90;;;;;;5058421;28;20075;-63
2023/09/13 00:47:29;;;;;;;12.65;6.65;;;19.70;99.90;;;;;;5059139;28;20416;-64
2023/09/13 00:49:54;;;;;;;11.98;7.45;;;19.80;99.90;;;;;;5056761;28;20045;-64
2023/09/13 00:52:21;;;;;;;12.48;7.60;;;19.80;99.90;;;;;;5058144;28;20040;-63
2023/09/13 00:54:47;;;;;;;11.88;7.07;;;19.80;99.90;;;;;;5059020;28;20586;-63
2023/09/13 00:57:13;;;;;;;11.35;7.32;;;19.70;99.90;;;;;;5058196;28;20036;-64
2023/09/13 00:59:39;;;;;;;10.80;7.72;;;19.80;99.90;;;;;;5054212;28;20093;-65
2023/09/13 01:02:05;;;;;;;11.93;7.15;;;19.80;99.90;;;;;;5057882;28;20036;-65
2023/09/13 01:04:34;;;;;;;12.82;7.70;;;19.80;99.90;;;;;;5057504;28;20064;-64
2023/09/13 01:07:00;;;;;;;10.88;7.05;;;19.80;99.90;;;;;;5056878;28;20051;-63
2023/09/13 01:09:26;;;;;;;13.20;7.82;;;19.70;99.90;;;;;;5055594;28;20442;-63
2023/09/13 01:11:52;;;;;;;11.23;7.72;;;19.70;99.90;;;;;;5056437;28;20037;-64
2023/09/13 01:14:18;;;;;;;11.60;7.72;;;19.70;99.90;;;;;;5054388;28;20036;-64
2023/09/13 01:16:56;;;;;;;10.93;7.50;;;19.70;99.90;;;;;;5056658;28;20047;-64
2023/09/13 01:20:10;;;;;;;12.43;8.02;;;19.70;99.90;;;;;;5055940;28;20768;-63
2023/09/13 01:22:57;;;;;;;13.40;8.60;;;19.70;99.90;;;;;;5034181;28;20532;-65
2023/09/13 01:25:31;;;;;;;13.35;8.00;;;19.60;99.90;;;;;;5057965;28;20032;-64
2023/09/13 01:28:38;;;;;;;13.20;8.52;;;19.70;99.90;;;;;;5055960;28;20029;-63
2023/09/13 01:31:09;;;;;;;13.13;8.05;;;19.70;99.90;;;;;;5055088;28;20338;-64
2023/09/13 01:33:35;;;;;;;13.88;8.25;;;19.60;99.90;;;;;;5039873;28;20028;-64
2023/09/13 01:36:01;;;;;;;13.38;8.32;;;19.60;99.90;;;;;;5058045;28;20123;-64
2023/09/13 01:38:28;;;;;;;12.60;9.02;;;19.60;99.90;;;;;;5054936;28;20040;-64
2023/09/13 01:41:17;;;;;;;15.00;9.00;;;19.60;99.90;;;;;;5080250;28;20048;-63
2023/09/13 01:43:43;;;;;;;12.00;8.73;;;19.60;99.90;;;;;;5055698;28;20044;-63
2023/09/13 01:46:12;;;;;;;13.55;8.57;;;19.60;99.90;;;;;;5055780;28;20101;-64
2023/09/13 01:48:39;;;;;;;11.65;9.25;;;19.50;99.90;;;;;;5056403;28;20670;-63
2023/09/13 01:51:05;;;;;;;13.48;8.80;;;19.50;99.90;;;;;;5061201;28;20116;-62
2023/09/13 01:53:31;;;;;;;13.80;9.48;;;19.50;99.90;;;;;;5061836;28;20085;-63
2023/09/13 01:55:57;;;;;;;13.48;9.35;;;19.50;99.90;;;;;;5058930;28;20704;-63
2023/09/13 01:58:23;;;;;;;17.85;9.88;;;19.50;99.90;;;;;;5060671;28;20075;-64
2023/09/13 02:00:48;;;;;;;13.45;9.10;;;19.50;99.90;;;;;;5085694;28;20093;-62
2023/09/13 02:03:14;;;;;;;14.70;9.45;;;19.30;99.90;;;;;;5061656;28;20036;-63
2023/09/13 02:05:40;;;;;;;13.15;9.35;;;19.40;99.90;;;;;;5060265;28;20087;-63
2023/09/13 02:08:05;;;;;;;12.55;9.15;;;19.50;99.90;;;;;;5082450;28;20036;-62
2023/09/13 02:10:31;;;;;;;14.85;9.85;;;19.30;99.90;;;;;;5057406;28;20123;-63
2023/09/13 02:12:59;;;;;;;14.90;10.07;;;19.40;99.90;;;;;;5059341;28;20043;-62
2023/09/13 02:15:27;;;;;;;15.50;9.70;;;19.50;99.90;;;;;;5061394;28;20455;-64
2023/09/13 02:17:52;;;;;;;15.27;10.50;;;19.30;99.90;;;;;;5059571;28;20037;-64
2023/09/13 02:20:18;;;;;;;14.32;9.70;;;19.40;99.90;;;;;;5059102;28;20086;-64
2023/09/13 02:22:44;;;;;;;14.27;9.52;;;19.50;99.90;;;;;;5060405;28;20036;-64
2023/09/13 02:25:09;;;;;;;15.38;8.98;;;19.50;99.90;;;;;;5061191;28;20055;-64
2023/09/13 02:27:35;;;;;;;12.45;9.00;;;19.50;99.90;;;;;;5061184;28;20082;-63
2023/09/13 02:30:04;;;;;;;13.75;9.02;;;19.40;99.90;;;;;;5058476;28;20511;-64
2023/09/13 02:32:30;;;;;;;16.45;8.90;;;19.30;99.90;;;;;;5059317;28;20034;-63
2023/09/13 02:34:56;;;;;;;15.05;8.68;;;19.30;99.90;;;;;;5057441;28;20457;-64
2023/09/13 02:37:21;;;;;;;13.57;8.18;;;19.30;99.90;;;;;;5057308;28;20028;-63
2023/09/13 02:39:47;;;;;;;16.80;8.82;;;19.30;99.90;;;;;;5057475;28;20506;-63
2023/09/13 02:42:13;;;;;;;18.58;7.90;;;19.30;99.90;;;;;;5055666;28;20041;-63
2023/09/13 02:44:39;;;;;;;16.27;7.55;;;19.20;99.90;;;;;;5058687;28;20048;-62
2023/09/13 02:47:05;;;;;;;13.45;8.02;;;19.20;99.90;;;;;;5060698;28;20048;-63
2023/09/13 02:49:32;;;;;;;16.35;8.18;;;19.30;99.90;;;;;;5060756;28;20060;-63
2023/09/13 02:51:58;;;;;;;18.85;8.10;;;19.20;99.90;;;;;;5057874;28;20048;-63
2023/09/13 02:54:24;;;;;;;11.57;6.85;;;19.20;99.90;;;;;;5060638;28;20029;-65
2023/09/13 02:56:50;;;;;;;15.88;7.20;;;19.30;99.90;;;;;;5060044;28;20025;-63
2023/09/13 02:59:16;;;;;;;15.00;7.15;;;19.20;99.90;;;;;;5058765;28;20449;-64
2023/09/13 03:01:42;;;;;;;15.40;6.60;;;19.20;99.90;;;;;;5061038;28;20020;-63
2023/09/13 03:04:08;;;;;;;11.98;6.85;;;19.20;99.90;;;;;;5058873;28;20089;-63
2023/09/13 03:06:34;;;;;;;15.63;6.15;;;19.20;99.90;;;;;;5059761;28;20052;-63
2023/09/13 03:09:00;;;;;;;13.15;6.75;;;19.20;99.90;;;;;;5060450;28;20040;-62
2023/09/13 03:11:25;;;;;;;11.90;6.05;;;19.20;99.90;;;;;;5060328;28;20368;-64
2023/09/13 03:13:51;;;;;;;11.73;5.85;;;19.20;99.90;;;;;;5060096;28;20033;-63
2023/09/13 03:16:19;;;;;;;14.23;6.28;;;19.10;99.90;;;;;;5059675;28;20033;-63
2023/09/13 03:18:46;;;;;;;12.82;6.25;;;19.10;99.90;;;;;;5058562;28;20052;-62
2023/09/13 03:21:12;;;;;;;15.82;6.43;;;19.00;99.90;;;;;;5059370;28;20048;-63
2023/09/13 03:23:42;;;;;;;11.77;5.53;;;19.00;99.90;;;;;;5060400;28;20064;-63
2023/09/13 03:26:23;;;;;;;11.18;5.38;;;19.00;99.90;;;;;;5056835;28;20045;-64
2023/09/13 03:28:54;;;;;;;9.07;4.93;;;19.00;99.90;;;;;;5055796;28;20036;-62
2023/09/13 03:31:25;;;;;;;14.45;5.53;;;19.00;99.90;;;;;;5057387;28;20103;-64
2023/09/13 03:33:52;;;;;;;12.57;5.50;;;18.80;99.90;;;;;;5058213;28;20047;-64
2023/09/13 03:36:18;;;;;;;13.20;5.80;;;18.90;99.90;;;;;;5058234;28;20478;-62
2023/09/13 03:38:45;;;;;;;11.45;5.22;;;18.80;99.90;;;;;;5059481;28;20078;-64
2023/09/13 03:41:16;;;;;;;12.20;6.05;;;18.80;99.90;;;;;;5060261;28;20032;-63
2023/09/13 03:43:42;;;;;;;10.07;5.72;;;18.70;99.90;;;;;;5056986;28;20076;-62
2023/09/13 03:46:08;;;;;;;11.43;5.45;;;18.90;99.90;;;;;;5057223;28;20451;-62
2023/09/13 03:48:35;;;;;;;11.57;5.70;;;18.90;99.90;;;;;;5058769;28;20071;-63
2023/09/13 03:51:01;;;;;;;13.35;6.15;;;18.90;99.90;;;;;;5058449;28;20509;-63
2023/09/13 03:53:27;;;;;;;12.13;6.18;;;18.90;99.90;;;;;;5059694;28;20036;-63
2023/09/13 03:55:54;;;;;;;10.40;5.38;;;18.80;99.90;;;;;;5058528;28;20143;-62
2023/09/13 03:58:20;;;;;;;11.48;6.25;;;18.80;99.90;;;;;;5058897;28;20036;-61
2023/09/13 04:00:46;;;;;;;12.00;6.55;;;18.80;99.90;;;;;;5056926;28;20032;-61
2023/09/13 04:03:15;;;;;;;13.32;6.10;;;18.90;99.90;;;;;;5058354;28;20476;-61
2023/09/13 04:05:41;;;;;;;11.20;6.53;;;18.90;99.90;;;;;;5058002;28;20052;-63
2023/09/13 04:08:07;;;;;;;10.18;6.75;;;18.90;99.90;;;;;;5059646;28;20040;-61
2023/09/13 04:10:32;;;;;;;14.48;6.70;;;18.90;99.90;;;;;;5057469;28;20234;-62
2023/09/13 04:12:58;;;;;;;13.88;6.25;;;18.90;99.90;;;;;;5056732;28;20396;-60
2023/09/13 04:15:24;;;;;;;9.90;5.18;;;18.90;99.90;;;;;;5057917;28;20028;-60
2023/09/13 04:17:50;;;;;;;15.13;6.55;;;18.80;99.90;;;;;;5058501;28;20597;-62
2023/09/13 04:20:16;;;;;;;12.40;6.40;;;18.70;99.90;;;;;;5057011;28;20087;-61
2023/09/13 04:22:42;;;;;;;10.70;6.05;;;18.70;99.90;;;;;;5055399;28;20044;-62
2023/09/13 04:25:08;;;;;;;11.23;5.63;;;18.70;99.90;;;;;;5058155;28;20036;-61
2023/09/13 04:27:34;;;;;;;11.52;5.93;;;18.60;99.90;;;;;;5058447;28;20078;-62
2023/09/13 04:30:00;;;;;;;9.45;5.25;;;18.70;99.90;;;;;;5056184;28;20045;-61
2023/09/13 04:32:26;;;;;;;8.90;5.22;;;18.60;99.90;;;;;;5056660;28;20033;-61
2023/09/13 04:34:55;;;;;;;12.38;5.75;;;18.40;99.90;;;;;;5038156;28;20044;-61
2023/09/13 04:37:21;;;;;;;10.38;5.35;;;18.50;99.90;;;;;;5060088;28;20036;-60
2023/09/13 04:39:47;;;;;;;9.73;5.50;;;18.40;99.90;;;;;;5055505;28;20035;-61
2023/09/13 04:42:14;;;;;;;10.68;5.20;;;18.30;99.90;;;;;;5057381;28;20048;-61
2023/09/13 04:44:39;;;;;;;9.07;4.90;;;18.30;99.90;;;;;;5057415;28;20101;-62
2023/09/13 04:47:05;;;;;;;8.10;3.80;;;18.30;99.90;;;;;;5056785;28;20115;-61
2023/09/13 04:49:31;;;;;;;10.13;3.95;;;18.20;99.90;;;;;;5052989;28;20036;-61
2023/09/13 04:51:57;;;;;;;6.35;3.47;;;18.10;99.90;;;;;;5057041;28;20034;-62
2023/09/13 04:54:23;;;;;;;6.38;3.40;;;18.10;99.90;;;;;;5058754;28;20373;-62
2023/09/13 04:56:50;;;;;;;7.05;3.63;;;18.00;99.90;;;;;;5058093;28;20032;-61
2023/09/13 04:59:16;;;;;;;8.90;3.30;;;18.10;99.90;;;;;;5058289;28;20051;-61
2023/09/13 05:01:41;;;;;;;6.10;3.25;;;18.10;99.90;;;;;;5056620;28;20032;-61
2023/09/13 05:04:07;;;;;;;9.40;3.30;;;17.90;99.90;;;;;;5055617;28;20095;-60
2023/09/13 05:06:33;;;;;;;7.78;3.50;;;18.00;99.90;;;;;;5055971;28;20048;-61
2023/09/13 05:08:59;;;;;;;9.85;3.15;;;17.90;99.90;;;;;;5056901;28;20047;-60
2023/09/13 05:11:24;;;;;;;6.18;2.47;;;18.10;99.90;;;;;;5055720;28;20097;-61
2023/09/13 05:13:51;;;;;;;6.10;2.35;;;17.90;99.90;;;;;;5058570;28;20039;-61
2023/09/13 05:16:19;;;;;;;6.22;1.98;;;18.00;99.90;;;;;;5057500;28;20044;-61
2023/09/13 05:18:46;;;;;;;6.65;2.20;;;17.80;99.90;;;;;;5055986;28;20115;-61
2023/09/13 05:21:11;;;;;;;6.32;2.03;;;17.80;99.90;;;;;;5057699;28;20039;-60
2023/09/13 05:23:37;;;;;;;11.50;2.47;;;17.90;99.90;;;;;;5058275;28;20048;-60
2023/09/13 05:26:03;;;;;;;13.32;1.80;;;17.80;99.90;;;;;;5066213;28;20499;-61
2023/09/13 05:28:33;;;;;;;6.57;1.55;;;17.60;99.90;;;;;;5055755;28;20044;-60
2023/09/13 05:31:05;;;;;;;4.82;1.35;;;17.20;99.90;;;;;;5055372;28;20037;-62
2023/09/13 05:33:31;;;;;;;8.45;1.75;;;17.20;99.90;;;;;;5055259;28;20040;-61
2023/09/13 05:35:57;;;;;;;7.32;1.63;;;16.90;99.90;;;;;;5056580;28;20059;-62
2023/09/13 05:38:23;;;;;;;6.35;2.03;;;16.60;99.90;;;;;;5056797;28;20035;-61
2023/09/13 05:40:49;;;;;;;8.82;2.10;;;16.20;99.90;;;;;;5057551;28;20496;-60
2023/09/13 05:43:14;;;;;;;9.25;2.20;;;16.10;99.90;;;;;;5057250;28;20037;-61
2023/09/13 05:45:40;;;;;;;11.18;2.45;;;16.00;99.90;;;;;;5054467;28;20387;-61
2023/09/13 05:48:06;;;;;;;8.18;2.45;;;15.80;99.90;;;;;;5056090;28;20028;-62
2023/09/13 05:50:32;;;;;;;11.20;2.22;;;15.50;99.90;;;;;;5057633;28;20048;-62
2023/09/13 05:52:58;;;;;;;7.95;2.15;;;15.60;99.90;;;;;;5079493;28;20040;-62
2023/09/13 05:55:24;;;;;;;10.30;2.42;;;15.50;99.90;;;;;;5055788;28;20056;-61
2023/09/13 05:57:51;;;;;;;5.55;2.10;;;15.50;99.90;;;;;;5057391;28;20033;-62
2023/09/13 06:00:17;;;;;;;6.97;1.98;;;15.50;99.90;;;;;;5056761;28;20470;-61
2023/09/13 06:02:43;;;;;;;8.15;2.40;;;15.20;99.90;;;;;;5055610;28;20036;-61
2023/09/13 06:05:11;;;;;;;7.72;2.38;;;15.40;99.90;;;;;;5057126;28;20377;-60
2023/09/13 06:07:37;;;;;;;6.13;2.05;;;15.40;99.90;;;;;;5053606;28;20115;-61
2023/09/13 06:10:04;;;;;;;5.20;1.73;;;15.50;99.90;;;;;;5054648;28;20484;-63
2023/09/13 06:12:33;;;;;;;4.70;1.70;;;15.40;99.90;;;;;;5056549;28;20032;-61
2023/09/13 06:14:59;;;;;;;6.00;1.98;;;15.50;99.90;;;;;;5056709;28;20086;-61
2023/09/13 06:17:25;;;;;;;7.38;2.08;;;15.50;99.90;;;;;;5056685;28;20365;-60
2023/09/13 06:19:51;;;;;;;5.68;1.90;;;15.60;99.90;;;;;;5055559;28;20083;-62
2023/09/13 06:22:17;;;;;;;5.35;1.75;;;15.60;99.90;;;;;;5058049;28;20053;-61
2023/09/13 06:24:44;;;;;;;6.45;2.03;;;15.30;99.90;;;;;;5057114;28;20496;-61
2023/09/13 06:27:10;;;;;;;6.93;2.13;;;15.50;99.90;;;;;;5057876;28;20043;-62
2023/09/13 06:29:35;;;;;;;5.57;1.95;;;15.40;99.90;;;;;;5056309;28;20040;-61
2023/09/13 06:32:03;;;;;;;6.22;2.08;;;15.50;99.90;;;;;;5057548;28;20037;-61
2023/09/13 06:34:29;;;;;;;4.60;1.65;;;15.30;99.90;;;;;;5054459;28;20101;-61
2023/09/13 06:36:55;;;;;;;5.80;1.77;;;15.30;99.90;;;;;;5060433;28;20050;-62
2023/09/13 06:39:21;;;;;;;4.55;1.80;;;15.50;99.90;;;;;;5059718;28;20036;-61
2023/09/13 06:41:47;;;;;;;7.35;1.92;;;15.50;99.90;;;;;;5059331;28;20029;-61
2023/09/13 06:44:13;;;;;;;5.35;1.80;;;15.30;99.90;;;;;;5056886;28;20734;-62
2023/09/13 06:46:41;;;;;;;7.65;2.20;;;15.50;99.90;;;;;;5059320;28;20044;-62
2023/09/13 06:49:07;;;;;;;6.95;2.15;;;15.40;99.90;;;;;;5057610;28;20052;-61
2023/09/13 06:51:32;;;;;;;8.20;2.03;;;15.40;99.90;;;;;;5058369;28;20483;-61
2023/09/13 06:53:59;;;;;;;7.35;2.40;;;15.50;99.90;;;;;;5059875;28;20036;-61
2023/09/13 06:56:25;;;;;;;8.27;2.35;;;15.30;99.90;;;;;;5058052;28;20037;-62
2023/09/13 06:58:52;;;;;;;10.73;2.85;;;15.30;99.90;;;;;;5059609;28;20494;-61
2023/09/13 07:01:19;;;;;;;9.45;3.10;;;15.50;99.90;;;;;;5059753;28;20044;-63
2023/09/13 07:03:45;;;;;;;10.15;2.80;;;15.30;99.90;;;;;;5057828;28;20037;-61
2023/09/13 07:06:14;;;;;;;10.77;3.00;;;15.40;99.90;;;;;;5058042;28;20101;-62
2023/09/13 07:08:39;;;;;;;9.65;2.78;;;15.50;99.90;;;;;;5055926;28;20160;-63
2023/09/13 07:11:05;;;;;;;12.07;3.53;;;15.60;99.90;;;;;;5057674;28;20139;-61
2023/09/13 07:13:31;;;;;;;9.07;2.95;;;15.50;99.90;;;;;;5057359;28;20116;-62
2023/09/13 07:15:57;;;;;;;11.70;3.80;;;15.50;99.90;;;;;;5059952;28;20131;-60
2023/09/13 07:18:24;;;;;;;13.25;3.40;;;15.60;99.90;;;;;;5040999;28;20083;-62
2023/09/13 07:20:49;;;;;;;10.25;2.80;;;15.40;99.90;;;;;;5059217;28;20036;-62
2023/09/13 07:23:15;;;;;;;8.30;2.97;;;15.50;99.90;;;;;;5060252;28;20038;-61
2023/09/13 07:25:41;;;;;;;9.48;3.20;;;15.60;99.90;;;;;;5041158;28;20029;-61
2023/09/13 07:28:06;;;;;;;12.02;3.33;;;15.60;99.90;;;;;;5057583;28;20115;-62
2023/09/13 07:30:32;;;;;;;10.63;3.05;;;15.50;99.90;;;;;;5058787;28;20043;-61
2023/09/13 07:32:58;;;;;;;10.73;3.28;;;15.50;99.90;;;;;;5055807;28;20039;-62
2023/09/13 07:35:24;;;;;;;10.95;2.95;;;15.50;99.90;;;;;;5053322;28;20028;-61
2023/09/13 07:37:50;;;;;;;10.88;3.13;;;15.60;99.90;;;;;;5059001;28;20490;-62
2023/09/13 07:40:16;;;;;;;9.13;2.92;;;15.50;99.90;;;;;;5057709;28;20033;-61
2023/09/13 07:42:41;;;;;;;9.50;2.78;;;15.70;99.90;;;;;;5059185;28;20190;-61
2023/09/13 07:45:08;;;;;;;9.80;2.88;;;15.60;99.90;;;;;;5058318;28;20067;-62
2023/09/13 07:47:33;;;;;;;11.35;3.13;;;15.70;99.90;;;;;;5056982;28;20041;-63
2023/09/13 07:50:00;;;;;;;9.95;3.03;;;15.80;99.90;;;;;;5050987;28;20049;-63
2023/09/13 07:52:26;;;;;;;7.97;2.78;;;15.90;99.90;;;;;;5052586;28;20469;-60
2023/09/13 07:54:52;;;;;;;9.70;3.47;;;15.90;99.90;;;;;;5057578;28;20028;-60
2023/09/13 07:57:18;;;;;;;11.85;3.10;;;16.00;99.90;;;;;;5058938;28;20511;-62
2023/09/13 07:59:44;;;;;;;13.52;3.38;;;15.90;99.90;;;;;;5052421;28;20483;-61
2023/09/13 08:02:10;;;;;;;9.52;2.83;;;15.90;99.90;;;;;;5052886;28;20040;-63
2023/09/13 08:04:36;;;;;;;10.40;3.53;;;16.00;99.90;;;;;;5040462;28;20049;-61
2023/09/13 08:07:02;;;;;;;9.95;3.20;;;16.00;99.90;;;;;;5056539;28;20373;-60
2023/09/13 08:09:28;;;;;;;12.00;2.95;;;16.10;99.90;;;;;;5039841;28;20040;-60
2023/09/13 08:11:54;;;;;;;11.57;3.22;;;16.20;99.90;;;;;;5058449;28;20035;-60
2023/09/13 08:14:20;;;;;;;10.82;3.08;;;16.20;99.90;;;;;;5059494;28;20058;-61
2023/09/13 08:16:46;;;;;;;10.63;3.50;;;16.30;99.90;;;;;;5058618;28;20573;-61
2023/09/13 08:19:12;;;;;;;10.15;3.10;;;16.30;99.90;;;;;;5058076;28;20131;-60
2023/09/13 08:21:38;;;;;;;10.85;3.45;;;16.20;99.90;;;;;;5054681;28;20120;-62
2023/09/13 08:24:04;;;;;;;10.23;2.97;;;16.20;99.90;;;;;;5057280;28;20066;-63
2023/09/13 08:26:30;;;;;;;11.57;2.90;;;16.10;99.90;;;;;;5058530;28;20040;-62
2023/09/13 08:28:57;;;;;;;10.02;3.17;;;16.10;99.90;;;;;;5056826;28;20436;-62
2023/09/13 08:31:25;;;;;;;11.75;3.05;;;16.10;99.90;;;;;;5054327;28;20483;-61
2023/09/13 08:33:54;;;;;;;12.30;3.25;;;16.20;99.90;;;;;;5051914;28;20136;-63
2023/09/13 08:36:21;;;;;;;9.18;3.10;;;16.10;99.90;;;;;;5049243;28;20816;-62
2023/09/13 08:38:46;;;;;;;9.73;3.25;;;16.20;99.90;;;;;;5054101;28;20032;-62
2023/09/13 08:41:14;;;;;;;11.85;3.15;;;16.30;99.90;;;;;;5038656;28;20039;-60
2023/09/13 08:43:41;;;;;;;12.45;2.92;;;16.30;99.90;;;;;;5052283;28;20024;-61
2023/09/13 08:46:07;;;;;;;8.70;2.90;;;16.40;99.90;;;;;;5051370;28;20373;-60
2023/09/13 08:48:33;;;;;;;10.10;3.05;;;16.40;99.90;;;;;;5054214;28;20029;-61
2023/09/13 08:51:02;;;;;;;8.52;3.35;;;16.50;99.90;;;;;;5053165;28;20499;-61
2023/09/13 08:53:29;;;;;;;12.02;3.33;;;16.60;99.90;;;;;;5052618;28;20033;-60
2023/09/13 08:55:55;;;;;;;11.43;3.33;;;16.60;99.90;;;;;;5056035;28;20040;-61
2023/09/13 08:58:22;;;;;;;11.93;3.08;;;16.60;99.90;;;;;;5056855;28;20074;-61
2023/09/13 09:00:51;;;;;;;9.73;3.22;;;16.70;99.90;;;;;;5056291;28;20059;-61
2023/09/13 09:03:21;;;;;;;7.40;2.72;;;16.70;99.90;;;;;;5058090;28;20033;-61
2023/09/13 09:05:47;;;;;;;8.48;2.60;;;16.80;99.90;;;;;;5056540;28;20449;-61
2023/09/13 09:08:13;;;;;;;8.60;2.70;;;16.80;99.90;;;;;;5056918;28;20471;-61
2023/09/13 09:10:42;;;;;;;11.00;2.60;;;16.80;99.90;;;;;;5056002;28;20557;-62
2023/09/13 09:13:10;;;;;;;7.30;2.55;;;16.80;99.90;;;;;;5057832;28;20091;-60
2023/09/13 09:15:38;;;;;;;8.10;2.72;;;16.80;99.90;;;;;;5055888;28;20040;-61
2023/09/13 09:18:09;;;;;;;10.57;2.65;;;16.90;99.90;;;;;;5055059;28;20033;-59
2023/09/13 09:20:38;;;;;;;7.82;2.35;;;17.00;99.90;;;;;;5058780;28;20067;-59
2023/09/13 09:23:06;;;;;;;7.82;2.28;;;17.10;99.90;;;;;;5057547;28;20067;-59
2023/09/13 09:25:32;;;;;;;7.78;2.20;;;17.30;99.90;;;;;;5059773;28;20044;-59
2023/09/13 09:27:58;;;;;;;7.93;2.28;;;17.20;99.90;;;;;;5056310;28;20025;-58
2023/09/13 09:30:33;;;;;;;7.93;2.10;;;17.20;99.90;;;;;;5056671;28;20112;-59
2023/09/13 09:33:03;;;;;;;8.45;2.08;;;17.00;99.90;;;;;;5058322;28;20122;-60
2023/09/13 09:35:29;;;;;;;7.35;1.90;;;16.90;99.90;;;;;;5055834;28;20066;-60
2023/09/13 09:37:55;;;;;;;9.38;2.10;;;17.00;99.90;;;;;;5057723;28;20036;-59
2023/09/13 09:40:21;;;;;;;5.60;1.90;;;17.10;99.90;;;;;;5058013;28;20398;-60
2023/09/13 09:42:54;;;;;;;6.47;2.20;;;17.20;99.90;;;;;;5057889;28;20102;-59
2023/09/13 09:45:21;;;;;;;6.13;2.38;;;17.30;99.90;;;;;;5057020;28;20399;-59
2023/09/13 09:47:47;;;;;;;7.60;2.38;;;17.50;99.90;;;;;;5057279;28;20173;-60
2023/09/13 09:50:15;;;;;;;7.07;2.15;;;17.60;99.90;;;;;;5055288;28;20045;-60
2023/09/13 09:52:42;;;;;;;5.72;2.20;;;17.80;99.90;;;;;;5054747;28;20068;-59
2023/09/13 09:55:13;;;;;;;7.47;1.90;;;17.90;99.90;;;;;;5056252;28;20102;-58
2023/09/13 09:57:45;;;;;;;7.78;2.10;;;18.10;99.90;;;;;;5055048;28;20041;-60
2023/09/13 10:00:12;;;;;;;8.77;2.10;;;18.10;99.90;;;;;;5055350;28;20468;-60
2023/09/13 10:02:38;;;;;;;8.43;2.20;;;18.10;99.90;;;;;;5057042;28;20047;-60
2023/09/13 10:05:05;;;;;;;6.38;2.05;;;18.20;99.90;;;;;;5056546;28;20519;-59
2023/09/13 10:07:40;;;;;;;8.73;1.55;;;18.10;99.90;;;;;;5056921;28;20442;-60
2023/09/13 10:10:09;;;;;;;9.00;2.17;;;18.20;99.90;;;;;;5057348;28;20091;-61
2023/09/13 10:12:45;;;;;;;6.82;1.85;;;18.10;99.90;;;;;;5084541;28;20510;-61
2023/09/13 10:15:11;;;;;;;7.18;2.10;;;18.00;99.90;;;;;;5059719;28;20090;-61
2023/09/13 10:17:39;;;;;;;9.60;2.05;;;18.10;99.90;;;;;;5061131;28;20044;-61
2023/09/13 10:20:06;;;;;;;7.32;2.00;;;18.10;99.90;;;;;;5061290;28;20028;-59
2023/09/13 10:22:35;;;;;;;6.68;2.00;;;18.00;99.90;;;;;;5059907;28;20139;-60
2023/09/13 10:25:04;;;;;;;6.40;2.20;;;17.80;99.90;;;;;;5060520;28;20113;-60
2023/09/13 10:27:33;;;;;;;6.95;2.67;;;17.50;99.90;;;;;;5060573;28;20048;-59
2023/09/13 10:30:03;;;;;;;6.28;2.20;;;17.20;99.90;;;;;;5060031;28;20041;-60
2023/09/13 10:32:47;;;;;;;5.20;1.92;;;17.00;99.90;;;;;;5061001;28;20032;-59
2023/09/13 10:35:15;;;;;;;9.63;2.42;;;16.80;99.90;;;;;;5084489;28;20036;-61
2023/09/13 10:37:50;;;;;;;6.22;2.15;;;16.60;99.90;;;;;;5059513;28;20028;-60
2023/09/13 10:40:27;;;;;;;9.38;2.40;;;16.70;99.90;;;;;;5060744;28;20043;-61
2023/09/13 10:42:54;;;;;;;9.68;2.47;;;16.70;99.90;;;;;;5050619;28;20448;-60
2023/09/13 10:45:22;;;;;;;8.27;2.50;;;16.80;99.90;;;;;;5058417;28;20040;-60
2023/09/13 10:47:50;;;;;;;7.60;2.20;;;17.00;99.90;;;;;;5059535;28;20020;-60
2023/09/13 10:50:16;;;;;;;8.80;2.45;;;17.00;99.90;;;;;;5060260;28;20426;-60
2023/09/13 10:52:46;;;;;;;6.63;2.25;;;17.00;99.90;;;;;;5058854;28;20025;-60
2023/09/13 10:55:12;;;;;;;8.43;2.50;;;16.90;99.90;;;;;;5056573;28;20067;-61
2023/09/13 10:57:40;;;;;;;10.88;3.45;;;16.70;99.90;;;;;;5057802;28;20115;-60
2023/09/13 11:00:12;;;;;;;17.50;4.00;;;16.60;99.90;;;;;;5058409;28;20060;-61
2023/09/13 11:02:42;;;;;;;9.60;3.45;;;16.60;99.90;;;;;;5056946;28;20488;-61
2023/09/13 11:05:12;;;;;;;7.93;3.10;;;16.60;99.90;;;;;;5058088;28;20056;-61
2023/09/13 11:07:46;;;;;;;8.70;3.15;;;16.70;99.90;;;;;;5059204;28;20121;-62
2023/09/13 11:10:14;;;;;;;11.38;3.30;;;16.80;99.90;;;;;;5059032;28;20047;-60
2023/09/13 11:12:48;;;;;;;10.00;3.60;;;16.90;99.90;;;;;;5057343;28;20037;-59
2023/09/13 11:15:26;;;;;;;11.43;3.17;;;17.00;99.90;;;;;;5059286;28;20028;-59
2023/09/13 11:18:12;;;;;;;9.25;3.30;;;17.10;99.90;;;;;;5059297;28;20037;-60
2023/09/13 11:20:40;;;;;;;13.38;3.80;;;17.30;99.90;;;;;;5059507;28;20398;-60
2023/09/13 11:23:12;;;;;;;7.80;3.30;;;17.60;99.90;;;;;;5043041;28;20708;-60
2023/09/13 11:25:49;;;;;;;9.57;2.45;;;17.80;99.90;;;;;;5060736;28;20125;-59
2023/09/13 11:28:34;;;;;;;7.82;2.65;;;17.90;99.90;;;;;;5079758;28;20041;-61
2023/09/13 11:31:01;;;;;;;;;;;18.10;99.90;;;;;;5057513;28;20045;-62
2023/09/13 11:33:28;;;;;;;7.80;2.90;;;18.20;99.90;;;;;;5060081;28;19942;-62
2023/09/13 11:35:59;;;;;;;9.68;3.05;;;18.30;99.90;;;;;;5058930;28;20020;-61
2023/09/13 11:38:26;;;;;;;8.77;2.90;;;18.30;99.90;;;;;;5060518;28;20049;-61
2023/09/13 11:40:56;;;;;;;9.27;2.85;;;18.30;99.90;;;;;;5057687;28;20418;-60
2023/09/13 11:43:26;;;;;;;8.05;2.42;;;18.40;99.90;;;;;;5058940;28;20106;-60
2023/09/13 11:45:56;;;;;;;6.80;2.90;;;18.40;99.90;;;;;;5058807;28;20426;-61
2023/09/13 11:48:39;;;;;;;8.40;2.75;;;18.50;99.90;;;;;;5057126;28;20051;-61
2023/09/13 11:51:16;;;;;;;7.80;2.35;;;18.60;99.90;;;;;;5059180;28;20048;-60
2023/09/13 11:53:42;;;;;;;7.40;2.78;;;18.70;99.90;;;;;;5060172;28;20119;-61
2023/09/13 11:56:35;;;;;;;8.13;2.92;;;18.80;99.90;;;;;;5059618;28;20036;-61
2023/09/13 11:59:01;;;;;;;7.20;2.78;;;18.90;99.90;;;;;;5056961;28;20044;-61
2023/09/13 12:01:29;;;;;;;7.38;2.95;;;19.00;99.90;;;;;;5058146;28;20032;-60
2023/09/13 12:03:56;;;;;;;6.18;2.88;;;19.10;99.90;;;;;;5058286;28;20032;-60
2023/09/13 12:06:23;;;;;;;6.93;2.55;;;19.10;99.90;;;;;;5056847;28;20140;-61
2023/09/13 12:08:49;;;;;;;7.18;2.88;;;19.20;99.90;;;;;;5057767;28;20051;-62
2023/09/13 12:11:15;;;;;;;7.72;3.05;;;19.30;99.90;;;;;;5056806;28;20468;-61
2023/09/13 12:13:44;;;;;;;8.00;2.72;;;19.40;99.90;;;;;;5058025;28;20043;-62
2023/09/13 12:16:10;;;;;;;6.53;3.05;;;19.50;99.90;;;;;;5057166;28;20032;-60
2023/09/13 12:18:37;;;;;;;7.10;2.80;;;19.50;99.90;;;;;;5057301;28;20089;-60
2023/09/13 12:21:07;;;;;;;7.30;2.65;;;19.50;99.90;;;;;;5059380;28;20044;-61
2023/09/13 12:23:38;;;;;;;5.53;2.90;;;19.50;99.90;;;;;;5057215;28;20483;-60
2023/09/13 12:26:09;;;;;;;7.75;2.80;;;19.40;99.90;;;;;;5057563;28;20472;-61
2023/09/13 12:28:40;;;;;;;6.75;2.70;;;19.40;99.90;;;;;;5058167;28;20522;-62
2023/09/13 12:31:07;;;;;;;5.97;2.65;;;19.50;99.90;;;;;;5058794;28;20621;-62
2023/09/13 12:33:34;;;;;;;6.88;2.58;;;19.50;99.90;;;;;;5056574;28;20071;-60
2023/09/13 12:36:01;;;;;;;6.90;2.72;;;19.60;99.90;;;;;;5058636;28;20037;-61
2023/09/13 12:38:32;;;;;;;10.40;2.75;;;19.70;99.90;;;;;;5057482;28;20033;-60
2023/09/13 12:40:58;;;;;;;6.43;2.47;;;19.70;99.90;;;;;;5059013;28;20040;-61
2023/09/13 12:43:32;;;;;;;6.53;3.00;;;19.70;99.90;;;;;;5058793;28;20460;-61
2023/09/13 12:45:58;;;;;;;5.88;2.40;;;19.70;99.90;;;;;;5057744;28;20032;-61